Skip Navigation Links Skip Navigation Links

Current Weather

Auckland, Sydney, Australia

For information only: do not use for flight planning or navigation.
Latest weather
Observation time Sunday, August 25, 2019 3:00 PM AEST
Local time Sunday, August 25, 2019 3:12 PM AEST
Flight conditions Visual Meteorological Conditions
Winds
Wind direction South-Southeast (150°)
Wind speed 18 mph
Visibility 6.2 mi.
Sky condition
Ceiling unlimited
Cloud layer few clouds 1,800 ft.
Cloud layer scattered clouds 2,500 ft.
Temperature 63°F
Dewpoint 52°F
Altimeter 30.03 in.Hg
Derived measurements
Relative humidity 68%
Density altitude 304 ft.
Remarks
No significant changes expected in the next two hours.
METAR YSSY 250500Z 15016KT 9999 FEW018 SCT025 17/11 Q1017 NOSIG

Settings

Location code

InnerDrive.Weather 4.0.6770.0 Release CLR 4.0.30319.42000
Copyright ©2018 Inner Drive Technology. All rights reserved. Portions Copyright ©1986-2018 David Braverman.

Find weather

Site navigation


Skip Navigation Links

Place info

Page info

PayPal - The safer, easier way to pay online!

Return home.

Copyright ©2019 Inner Drive Technology. Purveyors of fine, hand-crafted computer software. Page printed 2019-08-25T05:12:36 UTC.